Time;durP1;ratioP1;P1;durP2;ratioP2;P2;SDS_P1;SDS_P2;PMS_P1;PMS_P2;Temp;Humidity;BMP_temperature;BMP_pressure;BME280_temperature;BME280_humidity;BME280_pressure;Samples;Min_cycle;Max_cycle;Signal;HPM_P1;HPM_P2
2023/07/04 00:01:03;;;;;;;0.50;0.20;;;;;;;18.05;93.55;99882.56;5031714;28;20550;-52
2023/07/04 00:03:30;;;;;;;0.50;0.20;;;;;;;17.93;93.47;99881.53;5031560;28;20848;-52
2023/07/04 00:05:57;;;;;;;0.40;0.20;;;;;;;17.64;94.50;99890.59;5031442;28;20494;-52
2023/07/04 00:08:26;;;;;;;0.50;0.20;;;;;;;17.48;94.59;99882.66;5031455;28;20468;-52
2023/07/04 00:10:56;;;;;;;0.50;0.20;;;;;;;17.15;95.37;99888.31;5013542;28;20546;-53
2023/07/04 00:13:23;;;;;;;0.50;0.20;;;;;;;17.05;95.38;99876.41;5026410;28;20575;-52
2023/07/04 00:15:51;;;;;;;0.50;0.20;;;;;;;16.95;95.28;99884.16;5031415;28;20487;-52
2023/07/04 00:18:20;;;;;;;0.50;0.20;;;;;;;16.76;95.36;99892.50;5031611;28;20511;-52
2023/07/04 00:20:53;;;;;;;0.50;0.20;;;;;;;16.64;95.71;99889.66;5031484;28;20550;-52
2023/07/04 00:23:25;;;;;;;0.50;0.20;;;;;;;16.55;95.29;99891.03;5033655;28;20519;-52
2023/07/04 00:25:55;;;;;;;0.50;0.27;;;;;;;16.44;95.96;99889.00;5034412;28;20600;-53
2023/07/04 00:28:22;;;;;;;0.50;0.20;;;;;;;16.33;96.01;99891.47;5035097;28;20581;-53
2023/07/04 00:30:54;;;;;;;0.50;0.20;;;;;;;16.33;95.95;99899.50;5034904;28;20967;-52
2023/07/04 00:33:22;;;;;;;0.50;0.20;;;;;;;16.06;96.00;99899.31;5034879;28;20507;-53
2023/07/04 00:35:56;;;;;;;0.50;0.20;;;;;;;15.98;96.17;99896.19;5016753;28;20832;-52
2023/07/04 00:38:23;;;;;;;0.50;0.20;;;;;;;15.99;96.67;99903.25;5035037;28;20551;-52
2023/07/04 00:40:50;;;;;;;0.40;0.20;;;;;;;15.81;96.97;99890.91;5034645;28;20470;-52
2023/07/04 00:43:17;;;;;;;0.50;0.20;;;;;;;15.90;97.42;99899.31;5034905;28;20474;-53
2023/07/04 00:45:44;;;;;;;0.50;0.20;;;;;;;15.66;97.03;99892.66;5031957;28;20494;-52
2023/07/04 00:48:13;;;;;;;0.40;0.20;;;;;;;15.71;97.38;99906.63;5034446;28;20968;-52
2023/07/04 00:50:44;;;;;;;0.50;0.20;;;;;;;15.70;96.60;99910.28;5031270;28;20476;-52
2023/07/04 00:53:14;;;;;;;0.50;0.20;;;;;;;15.60;96.50;99901.88;5034517;28;20495;-52
2023/07/04 00:55:45;;;;;;;0.50;0.20;;;;;;;15.59;96.55;99913.53;5034329;28;20487;-53
2023/07/04 00:58:12;;;;;;;0.50;0.20;;;;;;;15.40;97.07;99918.16;5034383;28;20495;-52
2023/07/04 01:00:38;;;;;;;0.47;0.20;;;;;;;15.36;97.12;99912.13;5034099;28;20551;-52
2023/07/04 01:03:09;;;;;;;0.50;0.20;;;;;;;15.33;97.05;99922.09;5033998;28;20499;-53
2023/07/04 01:05:55;;;;;;;0.50;0.20;;;;;;;15.30;96.30;99916.91;5034312;28;20487;-52
2023/07/04 01:08:39;;;;;;;0.47;0.20;;;;;;;15.24;96.82;99920.81;5033435;28;20835;-52
2023/07/04 01:11:12;;;;;;;0.50;0.20;;;;;;;15.18;96.44;99917.56;5034152;28;20460;-52
2023/07/04 01:13:43;;;;;;;0.40;0.20;;;;;;;15.16;96.27;99916.78;5033745;28;20503;-52
2023/07/04 01:16:15;;;;;;;0.40;0.20;;;;;;;15.03;96.33;99916.56;5034223;28;20567;-52
2023/07/04 01:18:48;;;;;;;0.40;0.20;;;;;;;15.06;96.53;99922.63;5033918;28;20488;-52
2023/07/04 01:21:18;;;;;;;0.50;0.20;;;;;;;15.24;96.21;99927.97;5016295;28;20468;-52
2023/07/04 01:23:54;;;;;;;0.50;0.20;;;;;;;15.34;95.70;99929.19;5033582;28;20470;-52
2023/07/04 01:26:24;;;;;;;0.50;0.20;;;;;;;15.04;95.29;99919.16;5037619;28;20808;-52
2023/07/04 01:28:53;;;;;;;0.40;0.20;;;;;;;15.00;95.86;99930.13;5033480;28;20964;-52
2023/07/04 01:31:22;;;;;;;0.50;0.20;;;;;;;14.85;97.24;99933.59;5033569;28;20463;-53
2023/07/04 01:33:49;;;;;;;0.40;0.20;;;;;;;14.84;97.10;99924.72;5032832;28;20574;-52
2023/07/04 01:36:17;;;;;;;0.40;0.20;;;;;;;14.82;97.38;99940.84;5033565;28;20940;-52
2023/07/04 01:38:43;;;;;;;0.40;0.20;;;;;;;14.69;96.88;99938.88;5033276;28;20822;-52
2023/07/04 01:41:10;;;;;;;0.97;0.97;;;;;;;14.68;96.87;99940.69;5044049;28;20571;-52
2023/07/04 01:43:37;;;;;;;0.40;0.20;;;;;;;14.62;96.77;99946.34;5033456;28;21037;-52
2023/07/04 01:46:04;;;;;;;0.40;0.20;;;;;;;14.50;97.57;99946.97;5033332;28;20549;-53
2023/07/04 01:48:31;;;;;;;0.40;0.20;;;;;;;14.50;97.87;99949.63;5033426;28;20475;-52
2023/07/04 01:50:57;;;;;;;0.40;0.20;;;;;;;14.47;97.62;99953.34;5033254;28;20538;-52
2023/07/04 01:53:24;;;;;;;0.40;0.20;;;;;;;14.40;97.73;99949.22;5033399;28;20578;-52
2023/07/04 01:55:50;;;;;;;0.40;0.20;;;;;;;14.39;98.39;99950.16;5033039;28;21004;-52
2023/07/04 01:58:17;;;;;;;0.40;0.20;;;;;;;14.36;99.37;99944.06;5033310;28;20859;-52
2023/07/04 02:00:43;;;;;;;0.40;0.20;;;;;;;14.32;98.25;99953.19;5033083;28;20467;-53
2023/07/04 02:03:10;;;;;;;0.40;0.20;;;;;;;14.27;98.32;99958.78;5033010;28;20503;-53
2023/07/04 02:05:37;;;;;;;1.90;1.90;;;;;;;14.25;98.59;99963.31;5032929;28;20506;-52
2023/07/04 02:08:04;;;;;;;0.40;0.20;;;;;;;14.21;97.20;99973.28;5032784;28;20999;-53
2023/07/04 02:10:31;;;;;;;0.40;0.20;;;;;;;14.15;98.57;99968.25;5033321;28;20480;-52
2023/07/04 02:12:57;;;;;;;0.40;0.20;;;;;;;14.13;98.45;99971.97;5032653;28;20569;-53
2023/07/04 02:15:24;;;;;;;0.40;0.20;;;;;;;14.17;98.09;99971.72;5032888;28;20491;-52
2023/07/04 02:17:51;;;;;;;0.40;0.20;;;;;;;14.17;97.85;99976.22;5032726;28;20467;-53
2023/07/04 02:20:19;;;;;;;0.40;0.20;;;;;;;14.09;97.87;99976.56;5032723;28;20521;-52
2023/07/04 02:22:47;;;;;;;0.40;0.20;;;;;;;14.00;98.08;99976.16;5032610;28;20495;-52
2023/07/04 02:25:13;;;;;;;0.50;0.20;;;;;;;13.91;97.53;99980.13;5051247;23;20923;-49
2023/07/04 02:27:40;;;;;;;0.40;0.20;;;;;;;13.91;97.47;99977.44;5052475;28;20458;-49
2023/07/04 02:30:08;;;;;;;0.40;0.20;;;;;;;13.73;98.50;99994.34;5052721;28;20494;-49
2023/07/04 02:32:34;;;;;;;0.40;0.20;;;;;;;13.82;98.22;100001.91;5052325;28;20486;-49
2023/07/04 02:35:01;;;;;;;0.40;0.20;;;;;;;13.66;97.84;99988.41;5059781;28;20516;-49
2023/07/04 02:37:27;;;;;;;0.40;0.20;;;;;;;13.80;97.60;100001.13;5072502;28;20491;-49
2023/07/04 02:39:54;;;;;;;0.40;0.20;;;;;;;13.60;97.19;99999.38;5071968;28;20500;-49
2023/07/04 02:42:20;;;;;;;0.40;0.20;;;;;;;13.54;98.08;99996.97;5072217;28;20457;-49
2023/07/04 02:44:47;;;;;;;0.40;0.20;;;;;;;13.65;98.71;99997.34;5071369;28;20913;-49
2023/07/04 02:47:13;;;;;;;0.40;0.20;;;;;;;13.80;97.55;99985.97;5072010;28;20465;-48
2023/07/04 02:49:40;;;;;;;0.40;0.20;;;;;;;13.71;97.97;99991.75;5072094;28;20492;-48
2023/07/04 02:52:07;;;;;;;0.40;0.20;;;;;;;13.77;98.96;99986.09;5071942;28;20942;-48
2023/07/04 02:54:33;;;;;;;0.40;0.20;;;;;;;13.82;98.41;99999.25;5072362;28;20532;-49
2023/07/04 02:57:00;;;;;;;0.40;0.20;;;;;;;13.79;99.55;99999.38;5072027;28;20834;-50
2023/07/04 02:59:26;;;;;;;0.40;0.20;;;;;;;13.79;97.79;100000.25;5072080;28;20461;-50
2023/07/04 03:01:53;;;;;;;0.40;0.20;;;;;;;13.86;98.67;99993.72;5071777;28;20469;-50
2023/07/04 03:04:20;;;;;;;0.40;0.20;;;;;;;13.79;98.80;100002.94;5071903;28;20541;-50
2023/07/04 03:06:46;;;;;;;0.40;0.20;;;;;;;13.79;98.83;100002.94;5071735;28;20465;-50
2023/07/04 03:09:13;;;;;;;0.40;0.20;;;;;;;13.76;97.58;99996.88;5072078;28;20503;-50
2023/07/04 03:11:39;;;;;;;0.40;0.20;;;;;;;13.68;98.64;100001.69;5071688;28;20958;-50
2023/07/04 03:14:06;;;;;;;0.40;0.20;;;;;;;13.57;98.09;100004.88;5071786;28;20489;-50
2023/07/04 03:16:32;;;;;;;0.40;0.20;;;;;;;13.51;97.39;99999.78;5071821;28;21025;-50
2023/07/04 03:18:59;;;;;;;0.40;0.20;;;;;;;13.50;98.80;99998.06;5071735;28;20466;-50
2023/07/04 03:21:25;;;;;;;0.40;0.20;;;;;;;13.40;98.08;100005.59;5071798;28;20469;-50
2023/07/04 03:23:52;;;;;;;0.40;0.20;;;;;;;13.40;98.52;100007.41;5071436;28;20457;-51
2023/07/04 03:26:19;;;;;;;0.40;0.20;;;;;;;13.34;97.80;100012.09;5064550;28;20994;-50
2023/07/04 03:28:46;;;;;;;0.40;0.20;;;;;;;13.32;98.56;100013.09;5069273;28;20465;-50
2023/07/04 03:31:12;;;;;;;0.40;0.20;;;;;;;13.23;97.63;100009.03;5072411;28;20497;-50
2023/07/04 03:33:39;;;;;;;0.40;0.20;;;;;;;13.15;97.08;100005.78;5068524;28;20490;-50
2023/07/04 03:36:06;;;;;;;0.40;0.20;;;;;;;13.10;97.82;100012.28;5071495;28;20517;-51
2023/07/04 03:38:32;;;;;;;0.40;0.20;;;;;;;13.12;96.80;100011.25;5071723;28;20504;-50
2023/07/04 03:40:59;;;;;;;0.40;0.20;;;;;;;12.94;97.35;100006.72;5070054;28;20462;-50
2023/07/04 03:43:26;;;;;;;0.40;0.20;;;;;;;12.88;97.43;100015.84;5071443;28;20553;-50
2023/07/04 03:45:52;;;;;;;0.40;0.20;;;;;;;12.99;98.36;100015.38;5071631;28;20482;-50
2023/07/04 03:48:20;;;;;;;0.40;0.20;;;;;;;13.14;97.73;100011.19;5071668;28;20493;-50
2023/07/04 03:50:46;;;;;;;0.40;0.30;;;;;;;12.90;96.91;100014.00;5064665;28;20516;-49
2023/07/04 03:53:13;;;;;;;0.40;0.20;;;;;;;12.90;96.92;100022.00;5070492;28;20543;-50
2023/07/04 03:55:40;;;;;;;0.40;0.20;;;;;;;12.99;97.15;100021.59;5071267;28;20485;-49
2023/07/04 03:58:06;;;;;;;0.40;0.20;;;;;;;12.97;98.34;100018.13;5074980;28;20534;-50
2023/07/04 04:00:33;;;;;;;0.40;0.20;;;;;;;12.99;97.51;100018.94;5075208;28;20496;-50
2023/07/04 04:03:00;;;;;;;0.40;0.20;;;;;;;13.26;97.44;100016.03;5074794;28;20458;-50
2023/07/04 04:05:28;;;;;;;0.40;0.20;;;;;;;13.66;94.32;100015.13;5075129;28;20496;-49
2023/07/04 04:07:55;;;;;;;0.40;0.20;;;;;;;13.27;95.79;100018.63;5074898;28;20584;-50
2023/07/04 04:10:22;;;;;;;0.40;0.20;;;;;;;13.18;96.86;100024.38;5074856;28;20523;-49
2023/07/04 04:12:49;;;;;;;0.40;0.20;;;;;;;13.20;96.73;100022.53;5074593;28;20994;-49
2023/07/04 04:15:16;;;;;;;0.40;0.20;;;;;;;13.18;97.71;100029.72;5074998;28;20513;-50
2023/07/04 04:17:42;;;;;;;0.40;0.20;;;;;;;13.15;97.66;100027.13;5074886;28;20545;-50
2023/07/04 04:20:10;;;;;;;0.40;0.20;;;;;;;13.22;97.72;100033.13;5075003;28;20497;-49
2023/07/04 04:22:43;;;;;;;0.40;0.20;;;;;;;13.54;97.28;100034.34;5074640;28;20469;-51
2023/07/04 04:25:14;;;;;;;0.40;0.20;;;;;;;13.39;97.54;100041.25;5074391;28;20496;-50
2023/07/04 04:27:41;;;;;;;0.40;0.20;;;;;;;13.75;96.91;100048.56;5074798;28;20457;-50
2023/07/04 04:30:10;;;;;;;0.40;0.20;;;;;;;13.63;97.17;100045.50;5074949;28;20544;-50
2023/07/04 04:32:38;;;;;;;0.40;0.20;;;;;;;13.83;97.10;100043.72;5071933;28;20515;-50
2023/07/04 04:35:05;;;;;;;0.40;0.20;;;;;;;14.41;94.73;100041.00;5058364;28;20510;-50
2023/07/04 04:37:32;;;;;;;0.40;0.20;;;;;;;14.87;93.34;100055.69;5074602;28;20469;-50
2023/07/04 04:39:59;;;;;;;0.40;0.20;;;;;;;15.08;92.42;100056.44;5074605;28;20469;-50
2023/07/04 04:42:27;;;;;;;0.40;0.20;;;;;;;15.46;91.55;100054.44;5074566;28;20469;-50
2023/07/04 04:44:54;;;;;;;0.40;0.20;;;;;;;15.79;90.57;100050.94;5073991;28;20494;-50
2023/07/04 04:47:24;;;;;;;0.40;0.20;;;;;;;16.03;89.57;100056.78;5074491;28;20461;-49
2023/07/04 04:49:52;;;;;;;0.40;0.20;;;;;;;16.25;88.36;100066.25;5074238;28;20468;-49
2023/07/04 04:52:20;;;;;;;0.40;0.20;;;;;;;16.69;86.67;100072.78;5074318;28;20493;-49
2023/07/04 04:54:47;;;;;;;0.40;0.20;;;;;;;16.75;85.95;100067.94;5074169;28;20614;-50
2023/07/04 04:57:15;;;;;;;0.40;0.20;;;;;;;17.08;85.69;100075.81;5074395;28;20468;-50
2023/07/04 04:59:42;;;;;;;0.40;0.20;;;;;;;17.19;85.14;100077.88;5074258;28;20494;-49
2023/07/04 05:02:11;;;;;;;0.40;0.20;;;;;;;17.51;85.08;100069.72;5074404;28;20520;-49
2023/07/04 05:04:38;;;;;;;0.50;0.30;;;;;;;17.57;84.55;100080.09;5073891;28;20573;-50
2023/07/04 05:07:05;;;;;;;0.40;0.20;;;;;;;18.09;83.78;100087.66;5072637;28;20922;-49
2023/07/04 05:09:32;;;;;;;0.50;0.20;;;;;;;18.10;83.56;100073.28;5073193;28;20853;-49
2023/07/04 05:12:00;;;;;;;0.40;0.20;;;;;;;18.28;83.04;100085.53;5073954;28;20504;-51
2023/07/04 05:14:28;;;;;;;0.40;0.20;;;;;;;18.46;80.97;100087.03;5059932;28;20490;-50
2023/07/04 05:16:54;;;;;;;0.40;0.20;;;;;;;18.71;81.23;100082.81;5073626;28;20946;-50
2023/07/04 05:19:21;;;;;;;0.40;0.20;;;;;;;18.79;80.49;100093.94;5073751;28;20468;-50
2023/07/04 05:21:48;;;;;;;0.47;0.20;;;;;;;19.12;78.02;100082.75;5074104;28;20876;-50
2023/07/04 05:24:15;;;;;;;0.40;0.20;;;;;;;19.31;75.29;100085.06;5073655;28;20473;-50
2023/07/04 05:26:41;;;;;;;0.50;0.20;;;;;;;19.53;74.42;100083.50;5073624;28;20548;-51
2023/07/04 05:29:08;;;;;;;0.40;0.20;;;;;;;19.62;74.05;100087.44;5073720;28;20558;-51
2023/07/04 05:31:34;;;;;;;0.50;0.20;;;;;;;19.64;73.55;100084.63;5073622;28;20470;-51
2023/07/04 05:34:01;;;;;;;0.40;0.20;;;;;;;19.80;73.27;100083.44;5065063;28;20494;-51
2023/07/04 05:36:30;;;;;;;0.50;0.20;;;;;;;19.85;73.61;100096.59;5073626;28;20492;-51
2023/07/04 05:38:59;;;;;;;0.50;0.20;;;;;;;19.77;72.17;100090.88;5073381;28;20548;-50
2023/07/04 05:41:28;;;;;;;0.50;0.20;;;;;;;20.11;71.04;100089.34;5073464;28;20519;-51
2023/07/04 05:43:57;;;;;;;0.50;0.20;;;;;;;20.21;70.94;100093.13;5072972;28;20828;-50
2023/07/04 05:46:24;;;;;;;0.50;0.30;;;;;;;20.50;70.31;100092.91;5073149;28;20485;-51
2023/07/04 05:48:51;;;;;;;0.47;0.20;;;;;;;20.10;71.04;100083.09;5072984;28;20473;-51
2023/07/04 05:51:19;;;;;;;0.40;0.20;;;;;;;20.46;70.51;100084.16;5073402;28;20527;-51
2023/07/04 05:53:48;;;;;;;0.50;0.30;;;;;;;20.71;70.16;100094.03;5073096;28;20525;-51
2023/07/04 05:56:18;;;;;;;0.50;0.20;;;;;;;21.03;70.06;100093.47;5072982;28;20539;-50
2023/07/04 05:58:47;;;;;;;0.40;0.20;;;;;;;20.83;69.99;100095.84;5072703;28;20462;-51
2023/07/04 06:01:20;;;;;;;0.50;0.20;;;;;;;21.24;68.33;100095.44;5072952;28;20465;-51
2023/07/04 06:03:46;;;;;;;0.50;0.30;;;;;;;21.49;65.95;100097.13;5072731;28;21012;-50
2023/07/04 06:06:22;;;;;;;0.50;0.20;;;;;;;21.61;65.05;100103.44;5072790;28;20489;-51
2023/07/04 06:08:49;;;;;;;0.50;0.20;;;;;;;21.83;63.53;100099.94;5072690;28;20945;-51
2023/07/04 06:11:16;;;;;;;0.50;0.30;;;;;;;21.63;64.24;100106.88;5072682;28;20816;-50
2023/07/04 06:13:42;;;;;;;0.50;0.30;;;;;;;22.03;62.00;100098.34;5072729;28;20515;-51
2023/07/04 06:16:09;;;;;;;0.50;0.20;;;;;;;22.01;60.38;100098.47;5072741;28;20488;-51
2023/07/04 06:18:36;;;;;;;0.50;0.20;;;;;;;22.05;61.25;100099.97;5072803;28;20520;-51
2023/07/04 06:21:10;;;;;;;0.50;0.27;;;;;;;21.96;59.24;100100.69;5072504;28;20554;-50
2023/07/04 06:23:38;;;;;;;0.50;0.20;;;;;;;22.51;57.95;100109.84;5071440;28;20466;-51
2023/07/04 06:26:06;;;;;;;0.50;0.20;;;;;;;22.24;57.02;100102.09;5070421;28;20529;-51
2023/07/04 06:28:33;;;;;;;0.50;0.30;;;;;;;22.33;57.36;100101.34;5072692;28;20497;-51
2023/07/04 06:31:03;;;;;;;0.50;0.20;;;;;;;22.35;56.12;100102.13;5072016;28;20585;-51
2023/07/04 06:33:31;;;;;;;0.50;0.30;;;;;;;22.52;56.22;100103.44;5069428;28;20493;-51
2023/07/04 06:35:58;;;;;;;0.50;0.20;;;;;;;22.83;54.99;100101.81;5071768;28;20497;-51
2023/07/04 06:38:25;;;;;;;0.50;0.30;;;;;;;22.55;55.88;100111.31;5072118;28;20553;-51
2023/07/04 06:41:02;;;;;;;0.50;0.20;;;;;;;22.55;54.46;100105.03;5058967;28;20515;-51
2023/07/04 06:43:31;;;;;;;0.40;0.20;;;;;;;22.36;55.20;100108.41;5072165;28;20461;-51
2023/07/04 06:45:57;;;;;;;0.50;0.20;;;;;;;22.18;54.70;100099.88;5071949;28;20490;-51
2023/07/04 06:48:25;;;;;;;0.50;0.30;;;;;;;22.16;54.40;100112.69;5071961;28;21035;-51
2023/07/04 06:51:07;;;;;;;0.50;0.30;;;;;;;22.46;52.93;100107.50;5071993;28;20552;-51
2023/07/04 06:53:35;;;;;;;0.50;0.30;;;;;;;22.56;53.05;100110.34;5072852;28;20993;-51
2023/07/04 06:56:17;;;;;;;0.50;0.20;;;;;;;22.80;53.77;100115.59;5072075;28;20886;-51
2023/07/04 06:58:50;;;;;;;0.50;0.30;;;;;;;22.40;53.11;100109.84;5061129;28;20457;-52
2023/07/04 07:01:18;;;;;;;0.50;0.20;;;;;;;22.76;52.01;100114.16;5071839;28;20496;-51
2023/07/04 07:03:45;;;;;;;0.50;0.20;;;;;;;22.68;52.17;100117.47;5062481;28;20458;-51
2023/07/04 07:06:12;;;;;;;0.50;0.20;;;;;;;22.98;51.55;100119.53;5071876;28;20492;-51
2023/07/04 07:08:40;;;;;;;0.50;0.30;;;;;;;22.76;52.21;100117.72;5063522;28;20437;-52
2023/07/04 07:11:10;;;;;;;0.50;0.20;;;;;;;22.69;52.66;100123.75;5067331;28;20477;-51
2023/07/04 07:13:38;;;;;;;0.40;0.20;;;;;;;22.88;52.78;100121.28;5071949;28;20508;-52
2023/07/04 07:16:08;;;;;;;0.50;0.30;;;;;;;22.54;51.95;100119.59;5068065;28;20638;-52
2023/07/04 07:18:36;;;;;;;0.40;0.20;;;;;;;22.93;51.18;100115.50;5072803;28;20469;-51
2023/07/04 07:21:05;;;;;;;0.50;0.23;;;;;;;23.08;51.51;100124.19;5071538;28;20446;-52
2023/07/04 07:23:33;;;;;;;0.50;0.20;;;;;;;22.75;51.38;100131.38;5071759;28;20468;-51
2023/07/04 07:26:02;;;;;;;0.40;0.30;;;;;;;23.06;50.97;100129.75;5070993;28;20560;-52
2023/07/04 07:28:31;;;;;;;0.50;0.20;;;;;;;23.52;50.07;100124.03;5071599;28;20485;-51
2023/07/04 07:31:19;;;;;;;0.50;0.20;;;;;;;23.36;50.24;100120.91;5072082;28;20461;-51
2023/07/04 07:33:48;;;;;;;0.50;0.30;;;;;;;23.20;49.99;100128.59;5073010;28;20564;-51
2023/07/04 07:36:16;;;;;;;0.50;0.30;;;;;;;23.20;50.22;100128.59;5075611;28;20489;-51
2023/07/04 07:38:42;;;;;;;0.50;0.30;;;;;;;23.34;49.78;100129.16;5075441;28;20548;-51
2023/07/04 07:41:09;;;;;;;0.63;0.50;;;;;;;22.96;50.13;100126.06;5075655;28;20468;-51
2023/07/04 07:43:40;;;;;;;0.50;0.20;;;;;;;23.23;49.81;100121.06;5075408;28;20453;-52
2023/07/04 07:46:11;;;;;;;0.50;0.20;;;;;;;23.24;49.28;100122.78;5075540;28;20479;-52
2023/07/04 07:48:38;;;;;;;0.50;0.20;;;;;;;23.46;49.72;100121.00;5075407;28;20985;-52
2023/07/04 07:51:07;;;;;;;0.50;0.30;;;;;;;23.54;48.58;100122.03;5067421;28;20469;-52
2023/07/04 07:53:35;;;;;;;0.50;0.20;;;;;;;23.70;47.03;100110.75;5075271;28;20440;-52
2023/07/04 07:56:06;;;;;;;0.50;0.30;;;;;;;23.35;48.53;100111.91;5075115;28;20467;-51
2023/07/04 07:58:34;;;;;;;0.50;0.20;;;;;;;23.50;48.78;100117.00;5075358;28;20530;-51
2023/07/04 08:01:16;;;;;;;0.50;0.20;;;;;;;23.69;46.77;100111.75;5075172;28;20873;-52
2023/07/04 08:03:43;;;;;;;2.30;1.43;;;;;;;23.80;46.85;100108.97;5072112;28;20457;-52
2023/07/04 08:06:26;;;;;;;0.50;0.30;;;;;;;24.07;45.39;100111.16;5075237;28;20507;-52
2023/07/04 08:08:55;;;;;;;0.50;0.30;;;;;;;23.97;45.81;100114.78;5075143;28;20489;-51
2023/07/04 08:11:22;;;;;;;0.50;0.27;;;;;;;24.05;45.97;100112.28;5075062;28;20466;-52
2023/07/04 08:13:49;;;;;;;0.50;0.20;;;;;;;24.16;45.19;100118.50;5074824;28;20859;-52
2023/07/04 08:16:40;;;;;;;0.50;0.20;;;;;;;24.17;44.10;100117.50;5074897;28;20485;-52
2023/07/04 08:19:07;;;;;;;0.50;0.20;;;;;;;24.39;43.79;100111.03;5075078;28;20476;-52
2023/07/04 08:21:34;;;;;;;0.50;0.30;;;;;;;24.39;42.65;100111.03;5067212;28;20982;-51
2023/07/04 08:24:01;;;;;;;0.50;0.27;;;;;;;24.79;42.70;100112.91;5074110;28;20461;-52
2023/07/04 08:26:27;;;;;;;0.50;0.20;;;;;;;24.60;42.69;100104.69;5051979;23;20525;-51
2023/07/04 08:28:55;;;;;;;0.50;0.27;;;;;;;24.50;42.99;100107.38;5024956;28;20905;-51
2023/07/04 08:31:23;;;;;;;0.50;0.23;;;;;;;24.66;42.29;100104.97;5029616;28;20467;-51
2023/07/04 08:33:50;;;;;;;0.47;0.20;;;;;;;24.70;42.22;100105.59;5035712;28;20919;-51
2023/07/04 08:36:18;;;;;;;0.50;0.30;;;;;;;25.05;40.20;100114.13;5029794;28;20495;-51
2023/07/04 08:38:47;;;;;;;0.50;0.27;;;;;;;25.03;40.30;100098.97;5034588;28;20551;-51
2023/07/04 08:41:46;;;;;;;0.93;0.93;;;;;;;24.92;39.87;100105.34;5034658;28;20471;-51
2023/07/04 08:44:23;;;;;;;0.50;0.30;;;;;;;24.79;39.50;100108.31;5026820;28;20514;-51
2023/07/04 08:46:54;;;;;;;0.50;0.23;;;;;;;24.90;39.66;100101.03;5034714;28;20454;-51
2023/07/04 08:49:27;;;;;;;0.50;0.30;;;;;;;25.23;39.21;100111.59;5034886;28;20441;-51
2023/07/04 08:52:04;;;;;;;0.50;0.33;;;;;;;24.64;39.94;100106.13;5034068;28;20439;-51
2023/07/04 08:54:32;;;;;;;0.50;0.30;;;;;;;24.78;39.65;100106.59;5034345;28;20910;-51
2023/07/04 08:57:03;;;;;;;0.50;0.30;;;;;;;24.95;38.42;100107.81;5034225;28;20955;-51
2023/07/04 08:59:41;;;;;;;0.50;0.20;;;;;;;25.14;38.30;100114.31;5034272;28;20499;-51
2023/07/04 09:02:26;;;;;;;0.50;0.20;;;;;;;25.22;38.14;100106.28;5034309;28;20517;-52
2023/07/04 09:05:12;;;;;;;0.50;0.20;;;;;;;25.18;38.42;100113.88;5034155;28;20572;-52
2023/07/04 09:07:51;;;;;;;0.50;0.27;;;;;;;25.25;38.68;100101.44;5034071;28;20442;-52
2023/07/04 09:10:32;;;;;;;0.50;0.30;;;;;;;25.61;37.21;100109.84;5034279;28;20494;-51
2023/07/04 09:13:02;;;;;;;0.50;0.30;;;;;;;25.36;36.68;100111.31;5034275;28;20868;-52
2023/07/04 09:15:36;;;;;;;0.50;0.20;;;;;;;25.83;36.70;100108.72;5034117;28;20582;-52
2023/07/04 09:18:33;;;;;;;0.50;0.20;;;;;;;25.47;36.39;100113.88;5033834;28;20473;-52
2023/07/04 09:21:15;;;;;;;0.50;0.30;;;;;;;25.67;36.39;100112.00;5033727;28;20551;-52
2023/07/04 09:23:43;;;;;;;0.50;0.20;;;;;;;25.91;36.03;100117.91;5034050;28;20467;-51
2023/07/04 09:26:12;;;;;;;0.50;0.20;;;;;;;25.70;36.77;100109.03;5033466;28;20470;-52
2023/07/04 09:28:42;;;;;;;0.50;0.20;;;;;;;26.08;36.92;100110.81;5033661;28;20503;-52
2023/07/04 09:31:18;;;;;;;0.50;0.27;;;;;;;25.63;36.04;100108.72;5033530;28;20468;-52
2023/07/04 09:33:47;;;;;;;0.50;0.30;;;;;;;26.14;35.55;100117.53;5038838;28;20490;-52
2023/07/04 09:36:17;;;;;;;0.50;0.30;;;;;;;25.90;35.89;100105.25;5033732;28;20464;-52
2023/07/04 09:38:55;;;;;;;0.50;0.50;;;;;;;26.42;35.18;100108.44;5033840;28;21027;-52
2023/07/04 09:41:26;;;;;;;0.50;0.27;;;;;;;26.49;34.41;100095.94;5033853;28;20507;-51
2023/07/04 09:44:11;;;;;;;0.50;0.20;;;;;;;26.45;34.21;100104.53;5033142;28;20521;-52
2023/07/04 09:46:38;;;;;;;0.50;0.30;;;;;;;26.51;34.55;100093.03;5033274;28;20504;-52
2023/07/04 09:49:25;;;;;;;0.87;0.87;;;;;;;25.91;35.03;100093.38;5025497;28;20495;-52
2023/07/04 09:52:09;;;;;;;0.50;0.30;;;;;;;26.57;34.01;100104.19;5032134;28;20450;-52
2023/07/04 09:54:38;;;;;;;0.50;0.30;;;;;;;26.28;33.88;100096.13;5029305;28;21036;-52
2023/07/04 09:57:24;;;;;;;0.50;0.30;;;;;;;26.53;33.79;100091.88;5033005;28;20880;-52
2023/07/04 09:59:52;;;;;;;0.50;0.30;;;;;;;26.08;34.01;100090.91;5033199;28;20442;-52
2023/07/04 10:02:24;;;;;;;0.50;0.30;;;;;;;26.45;34.59;100082.72;5033602;28;20480;-52
2023/07/04 10:04:51;;;;;;;0.50;0.30;;;;;;;26.86;32.95;100081.34;5032833;28;20517;-52
2023/07/04 10:07:22;;;;;;;0.50;0.30;;;;;;;26.77;32.48;100080.41;5033343;28;20496;-52
2023/07/04 10:10:01;;;;;;;0.50;0.30;;;;;;;26.93;31.91;100073.44;5033142;28;20831;-52
2023/07/04 10:12:32;;;;;;;0.50;0.23;;;;;;;26.30;32.15;100074.16;5032999;28;21058;-51
2023/07/04 10:15:00;;;;;;;0.50;0.27;;;;;;;26.25;32.51;100073.75;5032766;28;20499;-52
2023/07/04 10:17:32;;;;;;;0.50;0.30;;;;;;;27.15;32.74;100073.88;5032931;28;21016;-52
2023/07/04 10:20:05;;;;;;;0.50;0.30;;;;;;;27.11;31.84;100063.41;5015503;28;20492;-52
2023/07/04 10:22:38;;;;;;;0.50;0.30;;;;;;;27.65;32.11;100066.97;5032967;28;20467;-52
2023/07/04 10:25:17;;;;;;;0.50;0.30;;;;;;;27.05;32.98;100053.97;5024653;28;20458;-52
2023/07/04 10:27:55;;;;;;;0.50;0.30;;;;;;;27.42;33.14;100062.00;5032579;28;20461;-52
2023/07/04 10:30:29;;;;;;;0.50;0.30;;;;;;;27.44;32.78;100050.94;5032880;28;20434;-52
2023/07/04 10:33:00;;;;;;;0.50;0.30;;;;;;;27.33;32.37;100060.22;5038021;28;20952;-52
2023/07/04 10:35:31;;;;;;;0.50;0.30;;;;;;;27.24;32.88;100049.38;5032633;28;20470;-52
2023/07/04 10:38:03;;;;;;;0.50;0.30;;;;;;;27.37;33.37;100056.16;5032388;28;20956;-52
2023/07/04 10:40:30;;;;;;;0.50;0.30;;;;;;;27.64;31.56;100063.41;5032548;28;20462;-52
2023/07/04 10:43:09;;;;;;;0.50;0.30;;;;;;;27.58;30.69;100055.81;5032628;28;20463;-52
2023/07/04 10:45:39;;;;;;;0.50;0.30;;;;;;;27.68;31.54;100051.13;5032410;28;20497;-52
2023/07/04 10:48:22;;;;;;;0.50;0.30;;;;;;;27.15;32.44;100045.72;5027092;28;20463;-52
2023/07/04 10:50:54;;;;;;;0.50;0.30;;;;;;;27.57;32.09;100047.78;5032433;28;20494;-52
2023/07/04 10:53:22;;;;;;;1.67;1.57;;;;;;;27.58;32.84;100042.16;5032465;28;20517;-52
2023/07/04 10:55:51;;;;;;;0.50;0.30;;;;;;;27.81;33.51;100045.25;5032123;28;20865;-52
2023/07/04 10:58:21;;;;;;;0.50;0.30;;;;;;;27.52;33.43;100031.84;5032378;28;20438;-52
2023/07/04 11:00:57;;;;;;;0.50;0.30;;;;;;;27.30;33.68;100041.41;5032083;28;20481;-52
2023/07/04 11:03:38;;;;;;;0.50;0.30;;;;;;;27.81;32.79;100037.03;5032160;28;20479;-52
2023/07/04 11:06:11;;;;;;;0.50;0.30;;;;;;;27.59;32.69;100038.41;5031258;28;20457;-52
2023/07/04 11:08:39;;;;;;;0.50;0.30;;;;;;;27.27;33.33;100036.25;5032077;28;20943;-52
2023/07/04 11:11:11;;;;;;;0.50;0.30;;;;;;;27.48;32.90;100022.28;5031954;28;20539;-52
2023/07/04 11:13:48;;;;;;;0.50;0.40;;;;;;;27.57;33.16;100021.34;5032348;28;20894;-52
2023/07/04 11:16:18;;;;;;;0.50;0.30;;;;;;;27.59;33.69;100030.22;5032018;28;20473;-52
2023/07/04 11:19:12;;;;;;;0.50;0.30;;;;;;;27.76;32.27;100031.22;5032271;28;20442;-52
2023/07/04 11:22:02;;;;;;;0.50;0.30;;;;;;;27.66;32.16;100025.00;5026878;28;20438;-52
2023/07/04 11:24:53;;;;;;;0.70;0.70;;;;;;;27.27;32.59;100024.47;5030176;28;20438;-52
2023/07/04 11:27:25;;;;;;;0.50;0.30;;;;;;;27.42;32.13;100026.50;5022121;28;20472;-52
2023/07/04 11:29:56;;;;;;;0.50;0.30;;;;;;;27.00;30.84;100031.72;5031971;28;20499;-54
2023/07/04 11:32:38;;;;;;;0.50;0.30;;;;;;;27.35;32.14;100024.56;5035165;28;20438;-52
2023/07/04 11:35:11;;;;;;;0.50;0.30;;;;;;;27.22;30.89;100027.69;5033294;28;20503;-52
2023/07/04 11:37:53;;;;;;;0.50;0.30;;;;;;;26.86;31.52;100016.75;5031777;28;20850;-52
2023/07/04 11:40:30;;;;;;;0.50;0.30;;;;;;;27.40;31.83;100019.47;5027431;28;20473;-52